sensor_id;sensor_type;location;lat;lon;timestamp;pressure;altitude;pressure_sealevel;temperature;humidity
25759;BME280;13604;52.496;13.456;2024-03-22T00:01:09;101639.19;;;6.50;100.00
25759;BME280;13604;52.496;13.456;2024-03-22T00:03:35;101668.34;;;6.59;100.00
25759;BME280;13604;52.496;13.456;2024-03-22T00:06:00;101666.00;;;6.62;100.00
25759;BME280;13604;52.496;13.456;2024-03-22T00:08:25;101636.34;;;6.35;100.00
25759;BME280;13604;52.496;13.456;2024-03-22T00:10:51;101641.88;;;6.40;100.00
25759;BME280;13604;52.496;13.456;2024-03-22T00:13:16;101636.09;;;6.32;100.00
25759;BME280;13604;52.496;13.456;2024-03-22T00:15:41;101636.72;;;6.18;100.00
25759;BME280;13604;52.496;13.456;2024-03-22T00:18:09;101631.06;;;6.12;100.00
25759;BME280;13604;52.496;13.456;2024-03-22T00:20:35;101650.06;;;6.34;100.00
25759;BME280;13604;52.496;13.456;2024-03-22T00:23:00;101629.09;;;6.19;100.00
25759;BME280;13604;52.496;13.456;2024-03-22T00:25:25;101633.94;;;6.26;100.00
25759;BME280;13604;52.496;13.456;2024-03-22T00:27:50;101639.81;;;6.36;100.00
25759;BME280;13604;52.496;13.456;2024-03-22T00:30:16;101632.41;;;6.40;100.00
25759;BME280;13604;52.496;13.456;2024-03-22T00:32:41;101623.97;;;6.43;100.00
25759;BME280;13604;52.496;13.456;2024-03-22T00:35:09;101633.44;;;6.54;100.00
25759;BME280;13604;52.496;13.456;2024-03-22T00:37:34;101609.13;;;6.40;100.00
25759;BME280;13604;52.496;13.456;2024-03-22T00:40:00;101635.25;;;6.55;100.00
25759;BME280;13604;52.496;13.456;2024-03-22T00:42:25;101614.00;;;6.59;100.00
25759;BME280;13604;52.496;13.456;2024-03-22T00:44:50;101593.16;;;6.46;100.00
25759;BME280;13604;52.496;13.456;2024-03-22T00:47:16;101597.91;;;6.52;100.00
25759;BME280;13604;52.496;13.456;2024-03-22T00:49:41;101606.69;;;6.54;100.00
25759;BME280;13604;52.496;13.456;2024-03-22T00:52:06;101577.97;;;6.39;100.00
25759;BME280;13604;52.496;13.456;2024-03-22T00:54:31;101579.44;;;6.47;100.00
25759;BME280;13604;52.496;13.456;2024-03-22T00:56:57;101608.91;;;6.49;100.00
25759;BME280;13604;52.496;13.456;2024-03-22T00:59:22;101612.09;;;6.57;100.00
25759;BME280;13604;52.496;13.456;2024-03-22T01:01:48;101591.91;;;6.41;100.00
25759;BME280;13604;52.496;13.456;2024-03-22T01:04:13;101579.78;;;6.40;100.00
25759;BME280;13604;52.496;13.456;2024-03-22T01:06:39;101549.03;;;6.33;100.00
25759;BME280;13604;52.496;13.456;2024-03-22T01:09:05;101576.84;;;6.35;100.00
25759;BME280;13604;52.496;13.456;2024-03-22T01:11:30;101590.91;;;6.51;100.00
25759;BME280;13604;52.496;13.456;2024-03-22T01:13:55;101570.53;;;6.32;100.00
25759;BME280;13604;52.496;13.456;2024-03-22T01:16:21;101581.69;;;6.42;100.00
25759;BME280;13604;52.496;13.456;2024-03-22T01:18:46;101596.72;;;6.36;100.00
25759;BME280;13604;52.496;13.456;2024-03-22T01:21:11;101584.00;;;6.28;100.00
25759;BME280;13604;52.496;13.456;2024-03-22T01:23:37;101588.47;;;6.18;100.00
25759;BME280;13604;52.496;13.456;2024-03-22T01:26:02;101576.22;;;6.16;100.00
25759;BME280;13604;52.496;13.456;2024-03-22T01:28:27;101578.47;;;6.23;100.00
25759;BME280;13604;52.496;13.456;2024-03-22T01:30:53;101517.44;;;5.91;100.00
25759;BME280;13604;52.496;13.456;2024-03-22T01:33:18;101572.19;;;6.19;100.00
25759;BME280;13604;52.496;13.456;2024-03-22T01:35:43;101560.56;;;6.02;100.00
25759;BME280;13604;52.496;13.456;2024-03-22T01:38:08;101553.38;;;6.10;100.00
25759;BME280;13604;52.496;13.456;2024-03-22T01:40:34;101557.13;;;6.14;100.00
25759;BME280;13604;52.496;13.456;2024-03-22T01:43:00;101545.19;;;6.16;100.00
25759;BME280;13604;52.496;13.456;2024-03-22T01:45:25;101546.09;;;6.16;100.00
25759;BME280;13604;52.496;13.456;2024-03-22T01:47:54;101563.91;;;6.35;100.00
25759;BME280;13604;52.496;13.456;2024-03-22T01:50:21;101559.63;;;6.36;100.00
25759;BME280;13604;52.496;13.456;2024-03-22T01:52:46;101521.22;;;6.18;100.00
25759;BME280;13604;52.496;13.456;2024-03-22T01:55:11;101530.03;;;6.20;100.00
25759;BME280;13604;52.496;13.456;2024-03-22T01:57:38;101547.91;;;6.29;100.00
25759;BME280;13604;52.496;13.456;2024-03-22T02:00:03;101536.56;;;6.27;100.00
25759;BME280;13604;52.496;13.456;2024-03-22T02:02:29;101545.56;;;6.32;100.00
25759;BME280;13604;52.496;13.456;2024-03-22T02:04:57;101527.69;;;6.23;100.00
25759;BME280;13604;52.496;13.456;2024-03-22T02:07:22;101510.22;;;6.21;100.00
25759;BME280;13604;52.496;13.456;2024-03-22T02:09:48;101539.25;;;6.29;100.00
25759;BME280;13604;52.496;13.456;2024-03-22T02:12:13;101513.47;;;6.18;100.00
25759;BME280;13604;52.496;13.456;2024-03-22T02:14:39;101538.81;;;6.34;100.00
25759;BME280;13604;52.496;13.456;2024-03-22T02:17:04;101524.28;;;6.36;100.00
25759;BME280;13604;52.496;13.456;2024-03-22T02:19:30;101517.88;;;6.31;100.00
25759;BME280;13604;52.496;13.456;2024-03-22T02:21:55;101524.09;;;6.33;100.00
25759;BME280;13604;52.496;13.456;2024-03-22T02:24:20;101501.34;;;6.29;100.00
25759;BME280;13604;52.496;13.456;2024-03-22T02:26:45;101529.50;;;6.48;100.00
25759;BME280;13604;52.496;13.456;2024-03-22T02:29:11;101514.16;;;6.39;100.00
25759;BME280;13604;52.496;13.456;2024-03-22T02:31:36;101502.59;;;6.34;100.00
25759;BME280;13604;52.496;13.456;2024-03-22T02:34:01;101484.72;;;6.25;100.00
25759;BME280;13604;52.496;13.456;2024-03-22T02:36:27;101482.78;;;6.23;100.00
25759;BME280;13604;52.496;13.456;2024-03-22T02:38:53;101427.97;;;5.93;100.00
25759;BME280;13604;52.496;13.456;2024-03-22T02:41:18;101486.94;;;6.33;100.00
25759;BME280;13604;52.496;13.456;2024-03-22T02:43:43;101452.19;;;6.17;100.00
25759;BME280;13604;52.496;13.456;2024-03-22T02:46:09;101451.06;;;6.14;100.00
25759;BME280;13604;52.496;13.456;2024-03-22T02:48:34;101466.84;;;6.29;100.00
25759;BME280;13604;52.496;13.456;2024-03-22T02:50:59;101470.97;;;6.26;100.00
25759;BME280;13604;52.496;13.456;2024-03-22T02:53:24;101457.72;;;6.22;100.00
25759;BME280;13604;52.496;13.456;2024-03-22T02:55:50;101474.69;;;6.30;100.00
25759;BME280;13604;52.496;13.456;2024-03-22T02:58:17;101470.75;;;6.35;100.00
25759;BME280;13604;52.496;13.456;2024-03-22T03:00:42;101451.75;;;6.23;100.00
25759;BME280;13604;52.496;13.456;2024-03-22T03:03:07;101461.44;;;6.25;100.00
25759;BME280;13604;52.496;13.456;2024-03-22T03:05:33;101427.09;;;6.16;100.00
25759;BME280;13604;52.496;13.456;2024-03-22T03:07:58;101445.56;;;6.33;100.00
25759;BME280;13604;52.496;13.456;2024-03-22T03:10:24;101431.75;;;6.20;100.00
25759;BME280;13604;52.496;13.456;2024-03-22T03:12:49;101452.44;;;6.32;100.00
25759;BME280;13604;52.496;13.456;2024-03-22T03:15:15;101426.00;;;6.24;100.00
25759;BME280;13604;52.496;13.456;2024-03-22T03:17:41;101431.84;;;6.34;100.00
25759;BME280;13604;52.496;13.456;2024-03-22T03:20:06;101426.66;;;6.34;100.00
25759;BME280;13604;52.496;13.456;2024-03-22T03:22:36;101425.31;;;6.39;100.00
25759;BME280;13604;52.496;13.456;2024-03-22T03:25:01;101425.19;;;6.37;100.00
25759;BME280;13604;52.496;13.456;2024-03-22T03:27:27;101431.03;;;6.35;100.00
25759;BME280;13604;52.496;13.456;2024-03-22T03:29:52;101383.25;;;6.18;100.00
25759;BME280;13604;52.496;13.456;2024-03-22T03:32:17;101416.91;;;6.41;100.00
25759;BME280;13604;52.496;13.456;2024-03-22T03:34:43;101366.16;;;6.20;100.00
25759;BME280;13604;52.496;13.456;2024-03-22T03:37:08;101385.06;;;6.31;100.00
25759;BME280;13604;52.496;13.456;2024-03-22T03:39:33;101397.22;;;6.32;100.00
25759;BME280;13604;52.496;13.456;2024-03-22T03:41:59;101373.91;;;6.20;100.00
25759;BME280;13604;52.496;13.456;2024-03-22T03:44:24;101383.72;;;6.24;100.00
25759;BME280;13604;52.496;13.456;2024-03-22T03:46:49;101404.38;;;6.36;100.00
25759;BME280;13604;52.496;13.456;2024-03-22T03:49:14;101405.84;;;6.44;100.00
25759;BME280;13604;52.496;13.456;2024-03-22T03:51:40;101397.09;;;6.42;100.00
25759;BME280;13604;52.496;13.456;2024-03-22T03:54:05;101379.41;;;6.36;100.00
25759;BME280;13604;52.496;13.456;2024-03-22T03:56:30;101391.91;;;6.42;100.00
25759;BME280;13604;52.496;13.456;2024-03-22T03:58:56;101379.63;;;6.39;100.00
25759;BME280;13604;52.496;13.456;2024-03-22T04:01:21;101367.84;;;6.31;100.00
25759;BME280;13604;52.496;13.456;2024-03-22T04:03:48;101347.75;;;6.15;100.00
25759;BME280;13604;52.496;13.456;2024-03-22T04:06:13;101342.75;;;6.18;100.00
25759;BME280;13604;52.496;13.456;2024-03-22T04:08:39;101333.22;;;6.17;100.00
25759;BME280;13604;52.496;13.456;2024-03-22T04:11:04;101363.59;;;6.32;100.00
25759;BME280;13604;52.496;13.456;2024-03-22T04:13:29;101363.78;;;6.35;100.00
25759;BME280;13604;52.496;13.456;2024-03-22T04:15:58;101342.00;;;6.19;100.00
25759;BME280;13604;52.496;13.456;2024-03-22T04:18:23;101355.00;;;6.33;100.00
25759;BME280;13604;52.496;13.456;2024-03-22T04:20:56;101352.44;;;6.33;100.00
25759;BME280;13604;52.496;13.456;2024-03-22T04:23:22;101326.81;;;6.24;100.00
25759;BME280;13604;52.496;13.456;2024-03-22T04:25:56;101344.66;;;6.33;100.00
25759;BME280;13604;52.496;13.456;2024-03-22T04:28:22;101343.53;;;6.41;100.00
25759;BME280;13604;52.496;13.456;2024-03-22T04:31:04;101348.59;;;6.39;100.00
25759;BME280;13604;52.496;13.456;2024-03-22T04:33:31;101322.63;;;6.26;100.00
25759;BME280;13604;52.496;13.456;2024-03-22T04:35:57;101344.22;;;6.38;100.00
25759;BME280;13604;52.496;13.456;2024-03-22T04:38:23;101302.19;;;6.17;100.00
25759;BME280;13604;52.496;13.456;2024-03-22T04:40:49;101301.16;;;6.27;100.00
25759;BME280;13604;52.496;13.456;2024-03-22T04:43:15;101310.25;;;6.34;100.00
25759;BME280;13604;52.496;13.456;2024-03-22T04:45:45;101309.88;;;6.41;100.00
25759;BME280;13604;52.496;13.456;2024-03-22T04:48:13;101313.03;;;6.49;100.00
25759;BME280;13604;52.496;13.456;2024-03-22T04:50:38;101294.97;;;6.37;100.00
25759;BME280;13604;52.496;13.456;2024-03-22T04:53:03;101301.03;;;6.37;100.00
25759;BME280;13604;52.496;13.456;2024-03-22T04:55:30;101301.47;;;6.43;100.00
25759;BME280;13604;52.496;13.456;2024-03-22T04:57:55;101296.41;;;6.45;100.00
25759;BME280;13604;52.496;13.456;2024-03-22T05:00:20;101278.19;;;6.43;100.00
25759;BME280;13604;52.496;13.456;2024-03-22T05:02:46;101256.25;;;6.38;100.00
25759;BME280;13604;52.496;13.456;2024-03-22T05:05:12;101286.03;;;6.45;100.00
25759;BME280;13604;52.496;13.456;2024-03-22T05:07:37;101295.81;;;6.49;100.00
25759;BME280;13604;52.496;13.456;2024-03-22T05:10:03;101269.53;;;6.31;100.00
25759;BME280;13604;52.496;13.456;2024-03-22T05:12:29;101282.53;;;6.44;100.00
25759;BME280;13604;52.496;13.456;2024-03-22T05:14:54;101292.44;;;6.50;100.00
25759;BME280;13604;52.496;13.456;2024-03-22T05:17:20;101283.69;;;6.48;100.00
25759;BME280;13604;52.496;13.456;2024-03-22T05:19:45;101297.72;;;6.52;100.00
25759;BME280;13604;52.496;13.456;2024-03-22T05:22:10;101290.63;;;6.49;100.00
25759;BME280;13604;52.496;13.456;2024-03-22T05:24:36;101251.53;;;6.33;100.00
25759;BME280;13604;52.496;13.456;2024-03-22T05:27:01;101259.94;;;6.42;100.00
25759;BME280;13604;52.496;13.456;2024-03-22T05:29:27;101231.88;;;6.23;100.00
25759;BME280;13604;52.496;13.456;2024-03-22T05:31:52;101255.09;;;6.47;100.00
25759;BME280;13604;52.496;13.456;2024-03-22T05:34:18;101243.38;;;6.52;100.00
25759;BME280;13604;52.496;13.456;2024-03-22T05:36:44;101257.38;;;6.67;100.00
25759;BME280;13604;52.496;13.456;2024-03-22T05:39:10;101242.56;;;6.65;100.00
25759;BME280;13604;52.496;13.456;2024-03-22T05:41:38;101239.97;;;6.53;100.00
25759;BME280;13604;52.496;13.456;2024-03-22T05:44:04;101213.28;;;6.40;100.00
25759;BME280;13604;52.496;13.456;2024-03-22T05:46:29;101250.03;;;6.73;100.00
25759;BME280;13604;52.496;13.456;2024-03-22T05:48:56;101231.88;;;6.60;100.00
25759;BME280;13604;52.496;13.456;2024-03-22T05:51:22;101225.00;;;6.60;100.00
25759;BME280;13604;52.496;13.456;2024-03-22T05:53:47;101257.94;;;6.88;100.00
25759;BME280;13604;52.496;13.456;2024-03-22T05:56:12;101229.13;;;6.70;100.00
25759;BME280;13604;52.496;13.456;2024-03-22T05:58:38;101215.00;;;6.78;100.00
25759;BME280;13604;52.496;13.456;2024-03-22T06:01:03;101226.22;;;6.91;100.00
25759;BME280;13604;52.496;13.456;2024-03-22T06:03:29;101208.72;;;6.75;100.00
25759;BME280;13604;52.496;13.456;2024-03-22T06:05:54;101237.28;;;7.02;100.00
25759;BME280;13604;52.496;13.456;2024-03-22T06:08:25;101210.28;;;6.98;100.00
25759;BME280;13604;52.496;13.456;2024-03-22T06:10:52;101223.34;;;7.13;100.00
25759;BME280;13604;52.496;13.456;2024-03-22T06:13:17;101225.53;;;7.20;100.00
25759;BME280;13604;52.496;13.456;2024-03-22T06:15:43;101199.72;;;7.08;100.00
25759;BME280;13604;52.496;13.456;2024-03-22T06:18:12;101226.94;;;7.28;100.00
25759;BME280;13604;52.496;13.456;2024-03-22T06:20:37;101208.22;;;7.19;100.00
25759;BME280;13604;52.496;13.456;2024-03-22T06:23:02;101222.06;;;7.33;100.00
25759;BME280;13604;52.496;13.456;2024-03-22T06:25:28;101212.69;;;7.35;100.00
25759;BME280;13604;52.496;13.456;2024-03-22T06:27:53;101220.97;;;7.43;100.00
25759;BME280;13604;52.496;13.456;2024-03-22T06:30:18;101183.00;;;7.30;100.00
25759;BME280;13604;52.496;13.456;2024-03-22T06:32:44;101208.34;;;7.34;100.00
25759;BME280;13604;52.496;13.456;2024-03-22T06:35:09;101202.06;;;7.30;100.00
25759;BME280;13604;52.496;13.456;2024-03-22T06:37:38;101186.78;;;7.22;100.00
25759;BME280;13604;52.496;13.456;2024-03-22T06:40:04;101183.72;;;7.27;100.00
25759;BME280;13604;52.496;13.456;2024-03-22T06:42:30;101187.91;;;7.39;100.00
25759;BME280;13604;52.496;13.456;2024-03-22T06:44:55;101203.44;;;7.65;100.00
25759;BME280;13604;52.496;13.456;2024-03-22T06:47:20;101179.22;;;7.38;100.00
25759;BME280;13604;52.496;13.456;2024-03-22T06:49:46;101199.25;;;7.54;100.00
25759;BME280;13604;52.496;13.456;2024-03-22T06:52:12;101196.56;;;7.52;100.00
25759;BME280;13604;52.496;13.456;2024-03-22T06:54:37;101173.34;;;7.54;100.00
25759;BME280;13604;52.496;13.456;2024-03-22T06:57:02;101170.66;;;7.52;100.00
25759;BME280;13604;52.496;13.456;2024-03-22T06:59:28;101168.47;;;7.45;100.00
25759;BME280;13604;52.496;13.456;2024-03-22T07:01:53;101183.69;;;7.67;100.00
25759;BME280;13604;52.496;13.456;2024-03-22T07:04:18;101198.13;;;7.77;100.00
25759;BME280;13604;52.496;13.456;2024-03-22T07:06:44;101179.88;;;7.76;100.00
25759;BME280;13604;52.496;13.456;2024-03-22T07:09:09;101162.53;;;7.74;100.00
25759;BME280;13604;52.496;13.456;2024-03-22T07:11:35;101189.53;;;7.91;100.00
25759;BME280;13604;52.496;13.456;2024-03-22T07:14:00;101172.19;;;7.90;100.00
25759;BME280;13604;52.496;13.456;2024-03-22T07:16:25;101144.63;;;7.92;100.00
25759;BME280;13604;52.496;13.456;2024-03-22T07:18:51;101165.13;;;8.16;100.00
25759;BME280;13604;52.496;13.456;2024-03-22T07:21:16;101176.16;;;8.27;100.00
25759;BME280;13604;52.496;13.456;2024-03-22T07:23:41;101172.13;;;8.32;100.00
25759;BME280;13604;52.496;13.456;2024-03-22T07:26:07;101160.47;;;8.25;100.00
25759;BME280;13604;52.496;13.456;2024-03-22T07:28:33;101158.81;;;8.26;100.00
25759;BME280;13604;52.496;13.456;2024-03-22T07:30:58;101162.03;;;8.37;100.00
25759;BME280;13604;52.496;13.456;2024-03-22T07:33:23;101157.84;;;8.10;100.00
25759;BME280;13604;52.496;13.456;2024-03-22T07:35:49;101165.22;;;8.18;100.00
25759;BME280;13604;52.496;13.456;2024-03-22T07:38:14;101178.75;;;8.27;100.00
25759;BME280;13604;52.496;13.456;2024-03-22T07:40:39;101171.06;;;8.28;100.00
25759;BME280;13604;52.496;13.456;2024-03-22T07:43:05;101142.47;;;8.14;100.00
25759;BME280;13604;52.496;13.456;2024-03-22T07:45:34;101148.63;;;8.16;100.00
25759;BME280;13604;52.496;13.456;2024-03-22T07:47:59;101152.25;;;8.18;100.00
25759;BME280;13604;52.496;13.456;2024-03-22T07:50:25;101179.41;;;8.38;100.00
25759;BME280;13604;52.496;13.456;2024-03-22T07:52:50;101165.16;;;8.31;100.00
25759;BME280;13604;52.496;13.456;2024-03-22T07:55:15;101139.81;;;8.27;100.00
25759;BME280;13604;52.496;13.456;2024-03-22T07:57:41;101166.50;;;8.53;100.00
25759;BME280;13604;52.496;13.456;2024-03-22T08:00:07;101150.56;;;8.33;100.00
25759;BME280;13604;52.496;13.456;2024-03-22T08:02:33;101163.19;;;8.55;100.00
25759;BME280;13604;52.496;13.456;2024-03-22T08:04:58;101134.72;;;8.57;100.00
25759;BME280;13604;52.496;13.456;2024-03-22T08:07:23;101147.28;;;8.64;100.00
25759;BME280;13604;52.496;13.456;2024-03-22T08:09:48;101131.13;;;8.70;100.00
25759;BME280;13604;52.496;13.456;2024-03-22T08:12:14;101131.97;;;8.69;100.00
25759;BME280;13604;52.496;13.456;2024-03-22T08:14:39;101132.94;;;9.00;100.00
25759;BME280;13604;52.496;13.456;2024-03-22T08:17:07;101139.81;;;9.15;100.00
25759;BME280;13604;52.496;13.456;2024-03-22T08:19:34;101114.75;;;9.00;100.00
25759;BME280;13604;52.496;13.456;2024-03-22T08:21:59;101131.13;;;9.29;100.00
25759;BME280;13604;52.496;13.456;2024-03-22T08:24:24;101123.84;;;9.24;100.00
25759;BME280;13604;52.496;13.456;2024-03-22T08:26:50;101141.75;;;9.34;100.00
25759;BME280;13604;52.496;13.456;2024-03-22T08:29:15;101104.72;;;9.07;100.00
25759;BME280;13604;52.496;13.456;2024-03-22T08:31:41;101129.19;;;9.42;100.00
25759;BME280;13604;52.496;13.456;2024-03-22T08:34:07;101124.44;;;9.49;100.00
25759;BME280;13604;52.496;13.456;2024-03-22T08:36:32;101112.22;;;9.48;100.00
25759;BME280;13604;52.496;13.456;2024-03-22T08:38:58;101105.47;;;9.52;100.00
25759;BME280;13604;52.496;13.456;2024-03-22T08:41:23;101101.25;;;9.23;100.00
25759;BME280;13604;52.496;13.456;2024-03-22T08:43:50;101108.31;;;9.40;100.00
25759;BME280;13604;52.496;13.456;2024-03-22T08:46:15;101094.16;;;9.35;100.00
25759;BME280;13604;52.496;13.456;2024-03-22T08:48:40;101091.47;;;9.33;100.00
25759;BME280;13604;52.496;13.456;2024-03-22T08:51:06;101081.59;;;9.43;100.00
25759;BME280;13604;52.496;13.456;2024-03-22T08:53:31;101085.88;;;9.42;100.00
25759;BME280;13604;52.496;13.456;2024-03-22T08:55:56;101056.25;;;9.55;100.00
25759;BME280;13604;52.496;13.456;2024-03-22T08:58:22;101048.38;;;9.70;100.00
25759;BME280;13604;52.496;13.456;2024-03-22T09:00:47;101042.78;;;9.62;100.00
25759;BME280;13604;52.496;13.456;2024-03-22T09:03:12;101067.34;;;9.84;99.14
25759;BME280;13604;52.496;13.456;2024-03-22T09:05:40;101059.53;;;9.84;100.00
25759;BME280;13604;52.496;13.456;2024-03-22T09:08:06;101056.19;;;9.70;100.00
25759;BME280;13604;52.496;13.456;2024-03-22T09:10:31;101056.53;;;9.92;100.00
25759;BME280;13604;52.496;13.456;2024-03-22T09:12:56;101059.84;;;10.06;98.52
25759;BME280;13604;52.496;13.456;2024-03-22T09:15:22;101064.38;;;10.27;97.85
25759;BME280;13604;52.496;13.456;2024-03-22T09:17:47;101038.31;;;9.92;98.01
25759;BME280;13604;52.496;13.456;2024-03-22T09:20:13;101051.91;;;10.03;97.53
25759;BME280;13604;52.496;13.456;2024-03-22T09:22:39;101028.09;;;10.30;96.05
25759;BME280;13604;52.496;13.456;2024-03-22T09:25:04;101042.59;;;10.41;95.45
25759;BME280;13604;52.496;13.456;2024-03-22T09:27:31;101023.56;;;10.60;93.73
25759;BME280;13604;52.496;13.456;2024-03-22T09:29:56;101014.72;;;10.93;92.97
25759;BME280;13604;52.496;13.456;2024-03-22T09:32:21;101031.03;;;11.26;90.62
25759;BME280;13604;52.496;13.456;2024-03-22T09:34:48;101006.88;;;10.93;91.01
25759;BME280;13604;52.496;13.456;2024-03-22T09:37:14;101016.94;;;11.03;90.71
25759;BME280;13604;52.496;13.456;2024-03-22T09:39:39;101037.59;;;11.36;91.28
25759;BME280;13604;52.496;13.456;2024-03-22T09:42:06;101021.56;;;11.66;88.70
25759;BME280;13604;52.496;13.456;2024-03-22T09:44:32;101036.81;;;11.95;85.78
25759;BME280;13604;52.496;13.456;2024-03-22T09:46:59;101028.44;;;11.83;85.03
25759;BME280;13604;52.496;13.456;2024-03-22T09:49:24;101026.97;;;11.90;86.61
25759;BME280;13604;52.496;13.456;2024-03-22T09:51:51;101029.38;;;12.24;85.13
25759;BME280;13604;52.496;13.456;2024-03-22T09:54:17;101009.53;;;11.89;84.67
25759;BME280;13604;52.496;13.456;2024-03-22T09:56:43;101015.59;;;11.68;86.23
25759;BME280;13604;52.496;13.456;2024-03-22T09:59:11;101026.16;;;11.71;86.67
25759;BME280;13604;52.496;13.456;2024-03-22T10:01:36;101021.53;;;11.27;88.00
25759;BME280;13604;52.496;13.456;2024-03-22T10:04:03;101019.97;;;11.50;87.72
25759;BME280;13604;52.496;13.456;2024-03-22T10:06:29;101006.66;;;11.44;87.05
25759;BME280;13604;52.496;13.456;2024-03-22T10:08:58;101002.88;;;11.37;86.87
25759;BME280;13604;52.496;13.456;2024-03-22T10:11:26;101014.63;;;11.66;86.40
25759;BME280;13604;52.496;13.456;2024-03-22T10:13:51;101008.28;;;11.81;84.66
25759;BME280;13604;52.496;13.456;2024-03-22T10:16:16;101007.56;;;12.03;84.50
25759;BME280;13604;52.496;13.456;2024-03-22T10:18:42;101010.47;;;12.09;82.40
25759;BME280;13604;52.496;13.456;2024-03-22T10:21:07;100985.72;;;11.62;83.77
25759;BME280;13604;52.496;13.456;2024-03-22T10:23:32;100992.19;;;12.09;83.38
25759;BME280;13604;52.496;13.456;2024-03-22T10:25:58;100990.44;;;12.09;82.50
25759;BME280;13604;52.496;13.456;2024-03-22T10:28:24;100954.56;;;11.65;82.75
25759;BME280;13604;52.496;13.456;2024-03-22T10:30:51;100976.44;;;11.88;83.41
25759;BME280;13604;52.496;13.456;2024-03-22T10:33:18;100981.91;;;11.92;82.72
25759;BME280;13604;52.496;13.456;2024-03-22T10:35:45;100982.00;;;11.95;83.81
25759;BME280;13604;52.496;13.456;2024-03-22T10:38:12;100950.50;;;11.91;83.01
25759;BME280;13604;52.496;13.456;2024-03-22T10:40:39;100972.13;;;12.29;81.80
25759;BME280;13604;52.496;13.456;2024-03-22T10:43:04;100974.34;;;12.20;82.02
25759;BME280;13604;52.496;13.456;2024-03-22T10:45:29;100982.19;;;12.62;80.94
25759;BME280;13604;52.496;13.456;2024-03-22T10:47:55;100952.63;;;12.85;78.01
25759;BME280;13604;52.496;13.456;2024-03-22T10:50:22;100966.72;;;13.58;76.00
25759;BME280;13604;52.496;13.456;2024-03-22T10:52:54;100924.16;;;14.14;71.59
25759;BME280;13604;52.496;13.456;2024-03-22T10:55:26;100969.25;;;14.84;69.52
25759;BME280;13604;52.496;13.456;2024-03-22T11:00:30;100963.03;;;16.01;nan
25759;BME280;13604;52.496;13.456;2024-03-22T11:02:57;100931.66;;;15.74;nan
25759;BME280;13604;52.496;13.456;2024-03-22T11:05:22;100913.66;;;15.56;nan
25759;BME280;13604;52.496;13.456;2024-03-22T11:07:58;100906.09;;;15.06;nan
25759;BME280;13604;52.496;13.456;2024-03-22T11:10:29;100931.25;;;14.44;nan
25759;BME280;13604;52.496;13.456;2024-03-22T11:13:02;100923.25;;;13.88;nan
25759;BME280;13604;52.496;13.456;2024-03-22T11:15:31;100917.56;;;14.52;nan
25759;BME280;13604;52.496;13.456;2024-03-22T11:17:57;100933.75;;;14.66;nan
25759;BME280;13604;52.496;13.456;2024-03-22T11:20:23;100926.22;;;14.23;nan
25759;BME280;13604;52.496;13.456;2024-03-22T11:22:49;100901.94;;;14.03;nan
25759;BME280;13604;52.496;13.456;2024-03-22T11:25:14;100883.00;;;14.10;nan
25759;BME280;13604;52.496;13.456;2024-03-22T11:27:39;100909.19;;;14.10;nan
25759;BME280;13604;52.496;13.456;2024-03-22T11:30:05;100888.38;;;13.63;nan
25759;BME280;13604;52.496;13.456;2024-03-22T11:32:30;100917.19;;;13.39;nan
25759;BME280;13604;52.496;13.456;2024-03-22T11:34:56;100916.19;;;13.35;nan
25759;BME280;13604;52.496;13.456;2024-03-22T11:37:22;100885.09;;;12.96;nan
25759;BME280;13604;52.496;13.456;2024-03-22T11:39:48;100895.38;;;12.92;nan
25759;BME280;13604;52.496;13.456;2024-03-22T11:42:13;100912.94;;;12.96;nan
25759;BME280;13604;52.496;13.456;2024-03-22T11:44:39;100889.44;;;12.73;nan
25759;BME280;13604;52.496;13.456;2024-03-22T11:47:04;100913.72;;;12.70;nan
25759;BME280;13604;52.496;13.456;2024-03-22T11:49:30;100894.13;;;12.38;nan
25759;BME280;13604;52.496;13.456;2024-03-22T11:51:56;100891.06;;;12.26;nan
25759;BME280;13604;52.496;13.456;2024-03-22T11:54:22;100886.59;;;12.23;nan
25759;BME280;13604;52.496;13.456;2024-03-22T11:56:47;100876.84;;;12.19;nan
25759;BME280;13604;52.496;13.456;2024-03-22T11:59:12;100869.16;;;12.01;nan
25759;BME280;13604;52.496;13.456;2024-03-22T12:02:38;100892.78;;;12.04;86.85
25759;BME280;13604;52.496;13.456;2024-03-22T12:05:04;100882.81;;;11.95;88.04
25759;BME280;13604;52.496;13.456;2024-03-22T12:07:30;100853.19;;;11.74;88.31
25759;BME280;13604;52.496;13.456;2024-03-22T12:09:55;100871.72;;;11.80;90.71
25759;BME280;13604;52.496;13.456;2024-03-22T12:12:21;100855.22;;;11.60;92.89
25759;BME280;13604;52.496;13.456;2024-03-22T12:14:47;100867.50;;;11.63;94.87
25759;BME280;13604;52.496;13.456;2024-03-22T12:17:13;100844.75;;;11.39;97.75
25759;BME280;13604;52.496;13.456;2024-03-22T12:19:38;100847.81;;;11.29;99.99
25759;BME280;13604;52.496;13.456;2024-03-22T12:22:03;100839.34;;;11.15;100.00
25759;BME280;13604;52.496;13.456;2024-03-22T12:24:32;100820.78;;;10.88;100.00
25759;BME280;13604;52.496;13.456;2024-03-22T12:26:57;100862.81;;;10.95;100.00
25759;BME280;13604;52.496;13.456;2024-03-22T12:29:23;100840.03;;;10.72;100.00
25759;BME280;13604;52.496;13.456;2024-03-22T12:31:49;100865.72;;;10.64;100.00
25759;BME280;13604;52.496;13.456;2024-03-22T12:34:15;100829.59;;;10.34;100.00
25759;BME280;13604;52.496;13.456;2024-03-22T12:36:40;100866.50;;;10.43;100.00